Airfield :







YOU CAN JOIN US ON...

 
LOGIN :

Register | Disclaimer

   EN    FR    IT 

 









Legend :    VFR   Marginal VFR   IFR   Intensive IFR   Very Intensive IFR
Visi :
Ceiling :
>= 8 km
>= 3000ft
5 to 8 km
1000 to 3000 ft
1500m to 5 km
500 to 1000 ft
800 to 1500m
200 to 500 ft
< 800m
< 200 ft
Symbols :   Thunderstorms  Fog  Heavy snow  Heavy precipitations  Wind > 20 kt






- Airport Elevation : 603 ft
- IATA code : LEB


KLEB - Lebanon Municipal

CURRENT METAR :
  • 220129Z 00000KT 10SM FEW001 FEW022 22/20 A2955 RMK AO2 LTG DSNT W T02220200

EXPIRED METARs :
  • 220053Z VRB03KT 10SM SCT026 22/20 A2954 RMK AO2 RAE2356 SLP993 P0000 T02220200
  • 220011Z 01003KT 10SM BKN029 23/20 A2955 RMK AO2 RAE2356 P0000 T02280200
  • 212353Z 04007KT 10SM -RA BKN033 22/20 A2955 RMK AO2 RAB01 TSB2258E32 SLP995 P0012 60012 T02220200 10339 20222 50010
  • 212332Z 11003KT 8SM -RA BKN035 BKN047 OVC100 22/19 A2956 RMK AO2 LTG DSNT N AND NE RAB01 TSB2258E32 P0012 T02220194
  • 212328Z 08005KT 2 1/2SM -TSRA OVC035 22/19 A2955 RMK AO2 LTG DSNT N AND NE RAB01 TSB2258 P0012 T02220194
  • 212304Z 32010G20KT 10SM -TSRA BKN035 BKN070 26/18 A2957 RMK AO2 LTG DSNT N AND W RAB01 TSB2258 P0000 T02610183
  • 212253Z 26011KT 10SM VCTS SCT030 29/20 A2956 RMK AO2 LTG DSNT W-N PRESRR SLP997 TS NW MOV E T02890200

TAF KLEB
Valid from the 22 at 00:00 until the 23 at 00:00 UTC


212320Z 2200/2224 VRB05G15KT 2SM -TSRA BKN030CB
FM220030 20007KT P6SM BKN050 OVC100
FM221200 31007KT P6SM BKN050
KZBW FIR / North America



MET'MAP, your aeronautical weather chart ! - Copyright ORBIFLY December 2007 - Disclaimer

ORBIFLY MET'MAP TEAM :

Programming & Development : Alexandra Zaïnal
Concept & original design : Baudouin d'Aumeries
Assistance for programming : Marc-Olivier Méhu
Technical & hardware support : Manuel Goepfert

Contact : metmap@orbifly.com




SOURCES & CREDITS :

   NOAA